createdAt,value
2018-12-13T00:00:32.939Z,20.40
2018-12-13T00:01:32.930Z,20.60
2018-12-13T00:02:32.951Z,20.60
2018-12-13T00:03:32.909Z,21.40
2018-12-13T00:04:32.900Z,20.50
2018-12-13T00:05:32.887Z,20.40
2018-12-13T00:06:33.488Z,21.70
2018-12-13T00:07:32.901Z,20.80
2018-12-13T00:08:32.853Z,19.80
2018-12-13T00:09:32.848Z,20.30
2018-12-13T00:10:32.843Z,21.40
2018-12-13T00:11:32.828Z,20.80
2018-12-13T00:12:33.360Z,21.30
2018-12-13T00:13:32.824Z,20.60
2018-12-13T00:14:32.796Z,20.30
2018-12-13T00:15:32.784Z,20.20
2018-12-13T00:16:32.874Z,19.90
2018-12-13T00:17:32.772Z,19.80
2018-12-13T00:18:32.741Z,20.50
2018-12-13T00:19:32.742Z,20.80
2018-12-13T00:20:32.718Z,20.50
2018-12-13T00:21:32.713Z,20.70
2018-12-13T00:22:32.719Z,20.20
2018-12-13T00:23:32.691Z,21.00
2018-12-13T00:24:32.679Z,20.60
2018-12-13T00:25:32.670Z,20.60
2018-12-13T00:26:32.667Z,21.20
2018-12-13T00:27:32.645Z,20.70
2018-12-13T00:28:32.685Z,20.30
2018-12-13T00:29:32.625Z,20.50
2018-12-13T00:30:32.612Z,20.70
2018-12-13T00:31:32.607Z,21.30
2018-12-13T00:32:32.589Z,21.30
2018-12-13T00:33:32.597Z,21.90
2018-12-13T00:34:32.572Z,20.10
2018-12-13T00:35:32.580Z,21.40
2018-12-13T00:36:32.639Z,21.40
2018-12-13T00:37:32.536Z,21.20
2018-12-13T00:38:32.545Z,20.80
2018-12-13T00:39:32.516Z,21.60
2018-12-13T00:40:32.501Z,20.90
2018-12-13T00:41:32.490Z,21.20
2018-12-13T00:42:32.491Z,21.40
2018-12-13T00:43:32.497Z,20.90
2018-12-13T00:44:32.455Z,21.00
2018-12-13T00:45:32.451Z,20.60
2018-12-13T00:46:32.435Z,20.50
2018-12-13T00:47:32.423Z,20.60
2018-12-13T00:48:32.414Z,21.10
2018-12-13T00:49:32.423Z,20.70
2018-12-13T00:50:32.393Z,20.30
2018-12-13T00:51:32.389Z,21.60
2018-12-13T00:52:32.376Z,20.50
2018-12-13T00:53:32.362Z,20.70
2018-12-13T00:54:32.367Z,19.20
2018-12-13T00:55:32.866Z,20.70
2018-12-13T00:56:32.334Z,20.90
2018-12-13T00:57:32.320Z,20.60
2018-12-13T00:58:32.306Z,20.60
2018-12-13T00:59:32.340Z,21.20
2018-12-13T01:00:32.281Z,19.80
2018-12-13T01:01:32.277Z,20.20
2018-12-13T01:02:32.266Z,20.20
2018-12-13T01:03:32.248Z,20.20
2018-12-13T01:04:32.259Z,20.90
2018-12-13T01:05:32.233Z,20.60
2018-12-13T01:06:32.222Z,20.00
2018-12-13T01:07:32.210Z,20.70
2018-12-13T01:08:32.196Z,19.90
2018-12-13T01:09:32.200Z,20.10
2018-12-13T01:10:32.175Z,20.00
2018-12-13T01:11:32.229Z,19.90
2018-12-13T01:12:32.155Z,19.80
2018-12-13T01:13:32.144Z,20.00
2018-12-13T01:14:32.143Z,19.40
2018-12-13T01:15:32.134Z,19.80
2018-12-13T01:16:32.111Z,19.70
2018-12-13T01:17:32.099Z,19.90
2018-12-13T01:18:32.084Z,20.10
2018-12-13T01:19:32.094Z,19.40
2018-12-13T01:20:32.066Z,21.10
2018-12-13T01:21:32.051Z,19.30
2018-12-13T01:22:32.042Z,20.10
2018-12-13T01:23:32.031Z,19.40
2018-12-13T01:24:32.037Z,20.90
2018-12-13T01:25:32.028Z,20.70
2018-12-13T01:26:32.000Z,20.50
2018-12-13T01:27:31.991Z,20.00
2018-12-13T01:28:31.982Z,20.00
2018-12-13T01:29:31.984Z,20.40
2018-12-13T01:30:31.958Z,20.30
2018-12-13T01:31:31.950Z,20.90
2018-12-13T01:32:31.933Z,20.90
2018-12-13T01:33:31.919Z,21.00
2018-12-13T01:34:31.941Z,20.70
2018-12-13T01:35:31.904Z,20.50
2018-12-13T01:36:31.888Z,20.90
2018-12-13T01:37:31.896Z,21.20
2018-12-13T01:38:31.868Z,22.40
2018-12-13T01:39:31.860Z,22.10
2018-12-13T01:40:31.863Z,23.00
2018-12-13T01:41:31.832Z,22.70
2018-12-13T01:42:31.821Z,21.40
2018-12-13T01:43:31.813Z,22.70
2018-12-13T01:44:31.841Z,22.50
2018-12-13T01:45:31.810Z,22.70
2018-12-13T01:46:31.779Z,23.30
2018-12-13T01:47:31.766Z,22.60
2018-12-13T01:48:31.758Z,22.80
2018-12-13T01:49:31.741Z,23.70
2018-12-13T01:50:31.757Z,22.60
2018-12-13T01:51:31.721Z,22.80
2018-12-13T01:52:31.710Z,23.50
2018-12-13T01:53:31.701Z,22.40
2018-12-13T01:54:31.693Z,23.30
2018-12-13T01:55:31.697Z,22.90
2018-12-13T01:56:31.727Z,22.30
2018-12-13T01:57:31.658Z,22.50
2018-12-13T01:58:31.646Z,23.70
2018-12-13T01:59:31.646Z,23.40
2018-12-13T02:00:31.643Z,22.80
2018-12-13T02:01:31.610Z,24.40
2018-12-13T02:02:31.606Z,23.00
2018-12-13T02:03:31.598Z,23.90
2018-12-13T02:04:31.592Z,24.30
2018-12-13T02:05:31.581Z,23.80
2018-12-13T02:06:31.566Z,24.00
2018-12-13T02:07:31.553Z,24.30
2018-12-13T02:08:31.545Z,24.50
2018-12-13T02:09:31.522Z,25.60
2018-12-13T02:10:31.536Z,23.80
2018-12-13T02:11:31.504Z,24.20
2018-12-13T02:12:31.489Z,24.90
2018-12-13T02:13:31.483Z,25.10
2018-12-13T02:14:31.467Z,23.90
2018-12-13T02:15:31.474Z,25.10
2018-12-13T02:16:31.450Z,24.50
2018-12-13T02:17:31.437Z,24.70
2018-12-13T02:18:31.429Z,26.30
2018-12-13T02:19:31.414Z,25.30
2018-12-13T02:20:31.434Z,24.90
2018-12-13T02:21:31.414Z,26.00
2018-12-13T02:22:31.378Z,25.40
2018-12-13T02:24:31.368Z,25.20
2018-12-13T02:25:31.358Z,25.70
2018-12-13T02:26:31.360Z,26.60
2018-12-13T02:27:31.326Z,27.00
2018-12-13T02:28:31.316Z,26.00
2018-12-13T02:29:31.304Z,25.80
2018-12-13T02:30:31.298Z,27.00
2018-12-13T02:31:31.305Z,26.60
2018-12-13T02:32:31.272Z,28.10
2018-12-13T02:33:31.260Z,27.00
2018-12-13T02:34:31.248Z,27.00
2018-12-13T02:35:31.285Z,27.10
2018-12-13T02:36:31.267Z,27.90
2018-12-13T02:37:31.213Z,28.30
2018-12-13T02:38:31.203Z,27.90
2018-12-13T02:39:31.197Z,28.30
2018-12-13T02:40:31.183Z,28.30
2018-12-13T02:41:31.188Z,29.60
2018-12-13T02:42:31.162Z,28.10
2018-12-13T02:43:31.153Z,27.90
2018-12-13T02:44:31.142Z,28.80
2018-12-13T02:45:31.126Z,29.70
2018-12-13T02:46:31.137Z,28.70
2018-12-13T02:47:31.109Z,28.40
2018-12-13T02:48:31.094Z,29.70
2018-12-13T02:49:31.083Z,29.00
2018-12-13T02:50:31.085Z,30.30
2018-12-13T02:51:31.086Z,28.90
2018-12-13T02:52:31.056Z,29.30
2018-12-13T02:53:31.043Z,29.60
2018-12-13T02:54:31.042Z,30.50
2018-12-13T02:55:31.024Z,29.30
2018-12-13T02:56:31.039Z,29.10
2018-12-13T02:57:31.000Z,29.70
2018-12-13T02:58:30.989Z,29.90
2018-12-13T02:59:30.972Z,29.50
2018-12-13T03:00:30.965Z,29.30
2018-12-13T03:01:30.968Z,31.10
2018-12-13T03:02:30.946Z,31.20
2018-12-13T03:03:30.940Z,30.20
2018-12-13T03:04:30.916Z,30.80
2018-12-13T03:05:30.913Z,30.70
2018-12-13T03:06:30.936Z,30.50
2018-12-13T03:07:30.885Z,29.50
2018-12-13T03:08:30.882Z,30.50
2018-12-13T03:09:30.867Z,30.50
2018-12-13T03:10:30.855Z,30.60
2018-12-13T03:11:30.862Z,30.50
2018-12-13T03:12:30.862Z,30.10
2018-12-13T03:13:30.831Z,30.00
2018-12-13T03:14:30.813Z,30.10
2018-12-13T03:15:30.802Z,30.00
2018-12-13T03:16:30.791Z,29.90
2018-12-13T03:17:30.798Z,30.10
2018-12-13T03:18:30.767Z,30.30
2018-12-13T03:19:30.756Z,30.80
2018-12-13T03:20:30.758Z,30.50
2018-12-13T03:21:30.733Z,28.30
2018-12-13T03:22:30.736Z,30.00
2018-12-13T03:23:30.708Z,29.70
2018-12-13T03:24:30.695Z,29.50
2018-12-13T03:25:30.692Z,29.70
2018-12-13T03:26:30.680Z,29.70
2018-12-13T03:27:30.687Z,29.90
2018-12-13T03:28:30.658Z,29.80
2018-12-13T03:29:30.645Z,29.70
2018-12-13T03:30:30.638Z,30.20
2018-12-13T03:31:30.623Z,30.10
2018-12-13T03:32:30.628Z,30.10
2018-12-13T03:33:30.603Z,29.80
2018-12-13T03:34:30.594Z,29.60
2018-12-13T03:35:30.582Z,30.20
2018-12-13T03:36:30.570Z,29.70
2018-12-13T03:37:30.586Z,30.80
2018-12-13T03:38:30.550Z,29.50
2018-12-13T03:39:30.538Z,29.90
2018-12-13T03:40:30.541Z,29.60
2018-12-13T03:41:30.517Z,29.70
2018-12-13T03:42:30.520Z,30.50
2018-12-13T03:43:30.497Z,29.10
2018-12-13T03:44:30.488Z,28.50
2018-12-13T03:45:30.472Z,29.40
2018-12-13T03:46:30.462Z,29.30
2018-12-13T03:47:30.470Z,29.00
2018-12-13T03:48:30.438Z,29.90
2018-12-13T03:49:30.429Z,27.90
2018-12-13T03:50:30.422Z,28.80
2018-12-13T03:51:30.412Z,28.20
2018-12-13T03:52:30.423Z,29.00
2018-12-13T03:53:30.386Z,29.10
2018-12-13T03:54:30.381Z,29.20
2018-12-13T03:55:30.366Z,29.30
2018-12-13T03:56:30.357Z,28.80
2018-12-13T03:57:30.363Z,28.90
2018-12-13T03:58:30.344Z,28.90
2018-12-13T03:59:30.315Z,28.10
2018-12-13T04:00:30.312Z,29.30
2018-12-13T04:01:30.294Z,28.90
2018-12-13T04:02:30.312Z,28.90
2018-12-13T04:03:30.277Z,29.10
2018-12-13T04:04:30.268Z,28.70
2018-12-13T04:05:30.257Z,28.70
2018-12-13T04:06:30.237Z,29.70
2018-12-13T04:07:30.236Z,29.00
2018-12-13T04:08:30.235Z,28.70
2018-12-13T04:09:30.209Z,28.30
2018-12-13T04:10:30.209Z,28.60
2018-12-13T04:11:30.183Z,27.80
2018-12-13T04:12:30.182Z,27.70
2018-12-13T04:13:30.180Z,27.60
2018-12-13T04:14:30.158Z,29.20
2018-12-13T04:15:30.146Z,28.30
2018-12-13T04:16:30.131Z,28.20
2018-12-13T04:17:30.121Z,28.50
2018-12-13T04:18:30.129Z,28.50
2018-12-13T04:19:30.100Z,28.30
2018-12-13T04:20:30.087Z,28.20
2018-12-13T04:21:30.079Z,26.90
2018-12-13T04:22:30.065Z,26.90
2018-12-13T04:23:30.077Z,28.00
2018-12-13T04:24:30.094Z,28.60
2018-12-13T04:25:30.037Z,27.50
2018-12-13T04:26:30.025Z,26.20
2018-12-13T04:27:30.018Z,27.30
2018-12-13T04:28:30.026Z,26.20
2018-12-13T04:29:29.997Z,27.80
2018-12-13T04:30:29.981Z,28.00
2018-12-13T04:31:29.972Z,27.00
2018-12-13T04:32:29.964Z,27.20
2018-12-13T04:33:29.981Z,27.50
2018-12-13T04:34:29.939Z,27.90
2018-12-13T04:35:29.930Z,27.50
2018-12-13T04:36:29.912Z,28.20
2018-12-13T04:37:35.249Z,26.70
2018-12-13T04:38:30.918Z,26.40
2018-12-13T04:39:29.882Z,28.00
2018-12-13T04:40:29.867Z,27.30
2018-12-13T04:41:29.857Z,26.50
2018-12-13T04:42:29.854Z,26.90
2018-12-13T04:43:29.843Z,26.30
2018-12-13T04:44:29.841Z,25.90
2018-12-13T04:45:29.811Z,25.30
2018-12-13T04:46:29.807Z,26.40
2018-12-13T04:47:29.796Z,26.40
2018-12-13T04:48:29.780Z,26.20
2018-12-13T04:49:29.796Z,26.40
2018-12-13T04:50:29.757Z,26.70
2018-12-13T04:51:29.743Z,25.90
2018-12-13T04:52:29.739Z,26.50
2018-12-13T04:53:29.728Z,27.20
2018-12-13T04:54:29.750Z,27.40
2018-12-13T04:55:29.703Z,27.40
2018-12-13T04:56:29.697Z,26.30
2018-12-13T04:57:29.680Z,26.00
2018-12-13T04:58:29.683Z,26.90
2018-12-13T04:59:29.680Z,27.00
2018-12-13T05:00:29.651Z,26.70
2018-12-13T05:01:29.641Z,27.30
2018-12-13T05:02:29.629Z,27.00
2018-12-13T05:03:29.618Z,26.30
2018-12-13T05:04:29.623Z,27.40
2018-12-13T05:05:29.592Z,27.30
2018-12-13T05:06:29.583Z,26.10
2018-12-13T05:07:29.571Z,26.70
2018-12-13T05:08:29.559Z,26.50
2018-12-13T05:09:29.566Z,27.60
2018-12-13T05:10:29.549Z,27.70
2018-12-13T05:11:29.536Z,28.10
2018-12-13T05:12:29.518Z,26.90
2018-12-13T05:13:29.505Z,27.80
2018-12-13T05:14:29.525Z,26.90
2018-12-13T05:15:29.483Z,26.80
2018-12-13T05:16:29.473Z,27.50
2018-12-13T05:17:29.514Z,27.20
2018-12-13T05:18:29.460Z,27.70
2018-12-13T05:19:29.465Z,27.50
2018-12-13T05:20:29.439Z,26.90
2018-12-13T05:21:29.419Z,28.30
2018-12-13T05:22:29.407Z,26.90
2018-12-13T05:23:29.402Z,28.10
2018-12-13T05:24:29.391Z,27.50
2018-12-13T05:25:29.399Z,28.20
2018-12-13T05:26:29.368Z,28.20
2018-12-13T05:27:29.359Z,28.60
2018-12-13T05:28:29.340Z,29.20
2018-12-13T05:29:29.330Z,28.80
2018-12-13T05:30:29.338Z,27.60
2018-12-13T05:31:29.310Z,27.80
2018-12-13T05:32:29.295Z,28.10
2018-12-13T05:33:29.290Z,27.10
2018-12-13T05:34:29.278Z,27.50
2018-12-13T05:35:29.281Z,28.30
2018-12-13T05:36:29.256Z,28.60
2018-12-13T05:37:29.240Z,28.20
2018-12-13T05:38:29.225Z,29.00
2018-12-13T05:39:29.222Z,28.00
2018-12-13T05:40:29.252Z,27.90
2018-12-13T05:41:29.199Z,27.80
2018-12-13T05:42:29.192Z,28.10
2018-12-13T05:43:29.180Z,28.10
2018-12-13T05:44:29.166Z,27.20
2018-12-13T05:45:29.181Z,28.00
2018-12-13T05:46:29.142Z,27.60
2018-12-13T05:47:29.133Z,28.10
2018-12-13T05:48:29.124Z,28.50
2018-12-13T05:49:29.111Z,27.30
2018-12-13T05:50:29.121Z,29.10
2018-12-13T05:51:29.091Z,28.30
2018-12-13T05:52:29.080Z,27.60
2018-12-13T05:53:29.068Z,27.50
2018-12-13T05:54:29.066Z,28.60
2018-12-13T05:55:29.083Z,27.20
2018-12-13T05:56:29.048Z,27.60
2018-12-13T05:57:29.024Z,27.30
2018-12-13T05:58:29.013Z,28.00
2018-12-13T05:59:29.002Z,27.90
2018-12-13T06:00:29.014Z,28.60
2018-12-13T06:01:28.980Z,28.60
2018-12-13T06:02:28.974Z,28.10
2018-12-13T06:03:28.959Z,28.50
2018-12-13T06:04:28.946Z,28.00
2018-12-13T06:05:28.960Z,28.00
2018-12-13T06:06:28.924Z,28.10
2018-12-13T06:07:28.919Z,28.20
2018-12-13T06:08:28.901Z,27.80
2018-12-13T06:09:28.891Z,27.20
2018-12-13T06:10:28.903Z,27.00
2018-12-13T06:11:28.877Z,27.60
2018-12-13T06:12:28.859Z,27.80
2018-12-13T06:13:28.858Z,27.10
2018-12-13T06:14:28.832Z,27.60
2018-12-13T06:15:28.844Z,27.70
2018-12-13T06:16:28.832Z,27.70
2018-12-13T06:17:28.804Z,27.80
2018-12-13T06:18:28.795Z,27.60
2018-12-13T06:19:28.791Z,27.70
2018-12-13T06:20:28.796Z,27.30
2018-12-13T06:21:28.760Z,27.10
2018-12-13T06:22:28.752Z,28.00
2018-12-13T06:23:28.739Z,25.90
2018-12-13T06:24:28.730Z,26.40
2018-12-13T06:25:28.733Z,27.10
2018-12-13T06:26:28.705Z,26.90
2018-12-13T06:27:28.701Z,26.80
2018-12-13T06:28:28.686Z,27.30
2018-12-13T06:29:28.670Z,28.10
2018-12-13T06:30:28.839Z,27.00
2018-12-13T06:31:28.654Z,27.70
2018-12-13T06:32:28.635Z,29.70
2018-12-13T06:33:28.632Z,28.20
2018-12-13T06:34:28.615Z,27.50
2018-12-13T06:35:28.606Z,26.70
2018-12-13T06:36:28.621Z,27.60
2018-12-13T06:37:28.586Z,28.20
2018-12-13T06:38:28.572Z,27.50
2018-12-13T06:39:28.561Z,27.20
2018-12-13T06:40:28.553Z,27.30
2018-12-13T06:41:28.560Z,26.80
2018-12-13T06:42:28.530Z,29.20
2018-12-13T06:43:28.520Z,29.10
2018-12-13T06:44:28.510Z,29.10
2018-12-13T06:45:28.497Z,28.70
2018-12-13T06:46:28.556Z,28.70
2018-12-13T06:47:28.481Z,27.30
2018-12-13T06:48:28.467Z,27.60
2018-12-13T06:49:28.456Z,27.70
2018-12-13T06:50:28.439Z,28.80
2018-12-13T06:51:28.446Z,28.60
2018-12-13T06:52:28.434Z,28.90
2018-12-13T06:53:28.410Z,28.20
2018-12-13T06:54:28.396Z,29.70
2018-12-13T06:55:28.384Z,29.10
2018-12-13T06:56:28.393Z,30.50
2018-12-13T06:57:28.373Z,29.90
2018-12-13T06:58:28.366Z,29.80
2018-12-13T06:59:28.342Z,30.30
2018-12-13T07:00:28.337Z,30.90
2018-12-13T07:01:28.343Z,30.60
2018-12-13T07:02:28.308Z,31.10
2018-12-13T07:03:28.304Z,29.90
2018-12-13T07:04:28.289Z,31.60
2018-12-13T07:05:28.278Z,31.30
2018-12-13T07:06:28.288Z,30.70
2018-12-13T07:07:28.255Z,30.40
2018-12-13T07:08:28.246Z,31.50
2018-12-13T07:09:28.232Z,31.30
2018-12-13T07:10:28.227Z,30.00
2018-12-13T07:11:28.232Z,31.80
2018-12-13T07:12:28.200Z,31.00
2018-12-13T07:13:28.189Z,30.20
2018-12-13T07:14:28.186Z,30.90
2018-12-13T07:15:28.169Z,31.00
2018-12-13T07:16:28.180Z,31.00
2018-12-13T07:17:28.153Z,31.50
2018-12-13T07:18:28.144Z,29.90
2018-12-13T07:19:28.125Z,30.20
2018-12-13T07:20:28.115Z,29.90
2018-12-13T07:21:28.131Z,30.20
2018-12-13T07:22:28.106Z,31.20
2018-12-13T07:23:28.079Z,31.20
2018-12-13T07:24:28.073Z,29.30
2018-12-13T07:25:28.062Z,30.00
2018-12-13T07:26:28.064Z,29.50
2018-12-13T07:27:28.040Z,30.00
2018-12-13T07:28:29.064Z,28.70
2018-12-13T07:29:28.015Z,27.90
2018-12-13T07:30:28.009Z,28.90
2018-12-13T07:31:28.036Z,29.00
2018-12-13T07:32:27.989Z,29.00
2018-12-13T07:33:27.978Z,29.70
2018-12-13T07:34:27.966Z,30.20
2018-12-13T07:35:27.960Z,29.40
2018-12-13T07:36:27.976Z,30.40
2018-12-13T07:37:27.934Z,30.20
2018-12-13T07:38:27.915Z,29.70
2018-12-13T07:39:27.907Z,29.90
2018-12-13T07:40:27.896Z,30.30
2018-12-13T07:41:27.890Z,29.80
2018-12-13T07:42:27.888Z,29.80
2018-12-13T07:43:27.866Z,29.50
2018-12-13T07:44:27.854Z,30.20
2018-12-13T07:45:27.852Z,29.90
2018-12-13T07:46:27.840Z,28.30
2018-12-13T07:47:27.853Z,29.10
2018-12-13T07:48:27.808Z,30.70
2018-12-13T07:49:27.802Z,29.60
2018-12-13T07:50:27.794Z,30.80
2018-12-13T07:51:27.776Z,30.40
2018-12-13T07:52:27.783Z,31.00
2018-12-13T07:53:27.811Z,30.30
2018-12-13T07:54:27.743Z,29.70
2018-12-13T07:55:27.731Z,31.50
2018-12-13T07:56:29.234Z,31.20
2018-12-13T07:57:27.745Z,32.00
2018-12-13T07:58:27.702Z,32.10
2018-12-13T07:59:27.693Z,33.50
2018-12-13T08:00:27.676Z,30.10
2018-12-13T08:01:27.664Z,30.60
2018-12-13T08:02:27.670Z,31.70
2018-12-13T08:03:27.673Z,31.10
2018-12-13T08:04:27.643Z,31.50
2018-12-13T08:05:27.620Z,31.60
2018-12-13T08:06:27.608Z,31.20
2018-12-13T08:07:27.615Z,31.70
2018-12-13T08:08:27.588Z,33.10
2018-12-13T08:09:27.581Z,31.60
2018-12-13T08:10:27.565Z,31.90
2018-12-13T08:11:27.557Z,32.60
2018-12-13T08:12:27.576Z,31.80
2018-12-13T08:13:27.534Z,33.10
2018-12-13T08:14:27.522Z,32.40
2018-12-13T08:15:27.506Z,32.70
2018-12-13T08:16:27.497Z,31.60
2018-12-13T08:17:27.509Z,32.80
2018-12-13T08:18:27.543Z,34.90
2018-12-13T08:19:27.470Z,32.50
2018-12-13T08:20:27.456Z,34.00
2018-12-13T08:21:27.450Z,33.60
2018-12-13T08:22:27.455Z,32.30
2018-12-13T08:23:27.423Z,32.50
2018-12-13T08:24:27.414Z,34.10
2018-12-13T08:25:27.408Z,33.70
2018-12-13T08:26:27.387Z,32.10
2018-12-13T08:27:27.391Z,30.80
2018-12-13T08:28:27.367Z,31.00
2018-12-13T08:29:27.352Z,31.90
2018-12-13T08:30:27.346Z,31.30
2018-12-13T08:31:27.335Z,32.10
2018-12-13T08:32:27.371Z,33.00
2018-12-13T08:33:27.325Z,31.60
2018-12-13T08:34:27.298Z,30.80
2018-12-13T08:35:27.287Z,30.90
2018-12-13T08:36:27.277Z,31.20
2018-12-13T08:37:27.289Z,31.00
2018-12-13T08:38:27.512Z,30.40
2018-12-13T08:39:27.247Z,31.00
2018-12-13T08:40:27.242Z,30.80
2018-12-13T08:41:27.225Z,30.90
2018-12-13T08:42:27.248Z,29.90
2018-12-13T08:43:27.197Z,29.40
2018-12-13T08:44:27.205Z,30.60
2018-12-13T08:45:27.176Z,30.90
2018-12-13T08:46:27.845Z,30.40
2018-12-13T08:47:30.251Z,31.20
2018-12-13T08:48:27.521Z,30.10
2018-12-13T08:49:27.607Z,31.10
2018-12-13T08:50:27.119Z,30.90
2018-12-13T08:51:27.106Z,30.70
2018-12-13T08:52:27.103Z,31.20
2018-12-13T08:53:27.130Z,30.20
2018-12-13T08:54:27.095Z,29.40
2018-12-13T08:55:27.072Z,29.80
2018-12-13T08:56:27.057Z,29.00
2018-12-13T08:57:27.047Z,28.60
2018-12-13T08:58:27.047Z,28.60
2018-12-13T08:59:27.030Z,27.80
2018-12-13T09:00:27.014Z,28.00
2018-12-13T09:01:27.002Z,29.10
2018-12-13T09:02:27.003Z,29.50
2018-12-13T09:03:27.001Z,29.20
2018-12-13T09:04:26.978Z,28.80
2018-12-13T09:05:26.962Z,28.40
2018-12-13T09:06:26.945Z,28.20
2018-12-13T09:07:26.941Z,28.00
2018-12-13T09:08:26.962Z,29.60
2018-12-13T09:09:26.910Z,27.80
2018-12-13T09:10:26.918Z,28.30
2018-12-13T09:11:26.954Z,27.70
2018-12-13T09:12:26.895Z,26.60
2018-12-13T09:13:26.898Z,27.20
2018-12-13T09:14:26.862Z,27.30
2018-12-13T09:15:26.845Z,27.50
2018-12-13T09:16:31.487Z,26.30
2018-12-13T09:17:26.828Z,27.10
2018-12-13T09:18:26.827Z,27.00
2018-12-13T09:19:26.866Z,26.60
2018-12-13T09:20:26.793Z,26.10
2018-12-13T09:21:26.781Z,25.60
2018-12-13T09:22:26.767Z,26.50
2018-12-13T09:23:26.784Z,25.20
2018-12-13T09:24:26.748Z,26.40
2018-12-13T09:25:26.734Z,24.80
2018-12-13T09:26:26.724Z,26.20
2018-12-13T09:27:26.710Z,24.90
2018-12-13T09:28:26.732Z,26.30
2018-12-13T09:29:26.692Z,24.80
2018-12-13T09:30:26.686Z,25.40
2018-12-13T09:31:26.671Z,26.00
2018-12-13T09:32:26.667Z,25.70
2018-12-13T09:33:26.662Z,24.70
2018-12-13T09:34:26.635Z,25.10
2018-12-13T09:35:26.629Z,24.80
2018-12-13T09:36:26.618Z,24.90
2018-12-13T09:37:26.600Z,24.00
2018-12-13T09:38:27.393Z,25.60
2018-12-13T09:39:26.602Z,25.10
2018-12-13T09:40:26.573Z,24.60
2018-12-13T09:41:26.560Z,24.80
2018-12-13T09:42:26.546Z,25.10
2018-12-13T09:43:26.534Z,24.20
2018-12-13T09:44:26.551Z,23.90
2018-12-13T09:45:26.516Z,23.80
2018-12-13T09:46:26.522Z,24.20
2018-12-13T09:47:26.490Z,24.20
2018-12-13T09:48:26.524Z,23.90
2018-12-13T09:49:26.678Z,23.90
2018-12-13T09:50:26.674Z,24.10
2018-12-13T09:51:26.446Z,24.30
2018-12-13T09:52:26.434Z,25.20
2018-12-13T09:53:26.425Z,24.90
2018-12-13T09:54:26.442Z,24.10
2018-12-13T09:55:26.418Z,24.50
2018-12-13T09:56:26.387Z,25.20
2018-12-13T09:57:26.381Z,24.30
2018-12-13T09:58:26.407Z,24.60
2018-12-13T09:59:26.381Z,25.50
2018-12-13T10:00:26.351Z,24.30
2018-12-13T10:01:26.354Z,24.10
2018-12-13T10:02:26.323Z,23.80
2018-12-13T10:03:26.307Z,23.60
2018-12-13T10:04:26.512Z,23.30
2018-12-13T10:05:26.298Z,23.80
2018-12-13T10:06:26.281Z,24.20
2018-12-13T10:07:26.302Z,23.30
2018-12-13T10:08:26.257Z,24.60
2018-12-13T10:09:26.265Z,24.70
2018-12-13T10:10:26.244Z,25.10
2018-12-13T10:11:26.984Z,24.20
2018-12-13T10:12:26.214Z,23.20
2018-12-13T10:13:26.198Z,24.30
2018-12-13T10:14:26.226Z,23.80
2018-12-13T10:15:31.788Z,24.00
2018-12-13T10:16:27.164Z,24.10
2018-12-13T10:17:26.157Z,25.10
2018-12-13T10:18:26.149Z,25.10
2018-12-13T10:19:26.170Z,24.60
2018-12-13T10:20:26.166Z,23.70
2018-12-13T10:21:26.114Z,23.80
2018-12-13T10:22:26.097Z,22.90
2018-12-13T10:23:26.088Z,23.80
2018-12-13T10:24:26.104Z,23.10
2018-12-13T10:25:26.064Z,25.00
2018-12-13T10:26:26.054Z,23.00
2018-12-13T10:27:26.042Z,25.10
2018-12-13T10:28:26.031Z,22.40
2018-12-13T10:29:26.045Z,23.50
2018-12-13T10:30:26.032Z,23.50
2018-12-13T10:31:26.000Z,24.00
2018-12-13T10:32:26.007Z,23.50
2018-12-13T10:33:25.977Z,23.40
2018-12-13T10:34:26.132Z,22.50
2018-12-13T10:35:25.971Z,23.40
2018-12-13T10:36:25.945Z,22.90
2018-12-13T10:37:25.946Z,22.30
2018-12-13T10:38:25.926Z,22.20
2018-12-13T10:39:25.912Z,23.90
2018-12-13T10:40:25.917Z,22.60
2018-12-13T10:41:25.890Z,21.90
2018-12-13T10:42:25.887Z,22.10
2018-12-13T10:43:25.867Z,21.50
2018-12-13T10:44:25.863Z,21.00
2018-12-13T10:45:25.868Z,22.80
2018-12-13T10:46:25.842Z,20.70
2018-12-13T10:47:25.828Z,22.20
2018-12-13T10:48:25.809Z,21.30
2018-12-13T10:49:25.817Z,22.00
2018-12-13T10:50:25.816Z,21.40
2018-12-13T10:51:25.783Z,21.70
2018-12-13T10:52:25.815Z,20.90
2018-12-13T10:53:25.758Z,21.80
2018-12-13T10:54:25.751Z,21.60
2018-12-13T10:55:25.757Z,21.50
2018-12-13T10:56:25.721Z,20.20
2018-12-13T10:57:25.721Z,20.90
2018-12-13T10:58:25.740Z,19.10
2018-12-13T10:59:25.690Z,20.00
2018-12-13T11:00:25.692Z,20.10
2018-12-13T11:01:25.669Z,21.10
2018-12-13T11:02:25.658Z,20.30
2018-12-13T11:03:25.654Z,20.50
2018-12-13T11:04:25.634Z,20.70
2018-12-13T11:05:25.653Z,21.30
2018-12-13T11:06:25.611Z,21.40
2018-12-13T11:07:25.601Z,20.60
2018-12-13T11:08:25.592Z,20.20
2018-12-13T11:09:25.578Z,20.40
2018-12-13T11:10:25.607Z,20.10
2018-12-13T11:11:25.561Z,21.90
2018-12-13T11:12:25.542Z,18.40
2018-12-13T11:13:25.535Z,18.10
2018-12-13T11:14:25.523Z,19.00
2018-12-13T11:15:25.531Z,19.40
2018-12-13T11:16:25.505Z,19.40
2018-12-13T11:17:25.493Z,19.50
2018-12-13T11:18:25.480Z,19.20
2018-12-13T11:19:25.474Z,19.20
2018-12-13T11:20:25.490Z,18.50
2018-12-13T11:21:25.444Z,19.10
2018-12-13T11:22:25.436Z,18.30
2018-12-13T11:23:25.428Z,17.90
2018-12-13T11:24:25.433Z,18.70
2018-12-13T11:25:25.403Z,17.90
2018-12-13T11:26:25.429Z,18.50
2018-12-13T11:27:25.415Z,18.90
2018-12-13T11:28:25.372Z,19.00
2018-12-13T11:29:25.358Z,19.10
2018-12-13T11:30:25.353Z,19.50
2018-12-13T11:31:25.357Z,19.40
2018-12-13T11:32:25.324Z,19.10
2018-12-13T11:33:25.324Z,20.40
2018-12-13T11:34:25.308Z,19.80
2018-12-13T11:35:25.304Z,19.40
2018-12-13T11:36:25.306Z,19.70
2018-12-13T11:37:25.282Z,20.00
2018-12-13T11:38:25.256Z,19.90
2018-12-13T11:39:25.284Z,20.60
2018-12-13T11:40:25.236Z,20.00
2018-12-13T11:41:25.244Z,19.70
2018-12-13T11:42:25.217Z,19.70
2018-12-13T11:43:25.205Z,20.50
2018-12-13T11:44:25.196Z,20.70
2018-12-13T11:45:25.180Z,19.00
2018-12-13T11:46:25.196Z,19.50
2018-12-13T11:47:25.165Z,19.10
2018-12-13T11:48:25.154Z,20.00
2018-12-13T11:49:25.134Z,18.70
2018-12-13T11:50:25.131Z,19.80
2018-12-13T11:51:26.435Z,19.70
2018-12-13T11:52:25.108Z,19.80
2018-12-13T11:53:25.098Z,19.40
2018-12-13T11:54:25.084Z,19.40
2018-12-13T11:55:25.075Z,20.60
2018-12-13T11:56:25.090Z,19.90
2018-12-13T11:57:25.052Z,19.40
2018-12-13T11:58:25.057Z,19.30
2018-12-13T11:59:25.036Z,21.00
2018-12-13T12:00:25.022Z,20.30
2018-12-13T12:01:25.027Z,20.10
2018-12-13T12:02:25.010Z,20.40
2018-12-13T12:03:24.990Z,20.70
2018-12-13T12:04:24.974Z,21.30
2018-12-13T12:05:24.968Z,21.10
2018-12-13T12:06:24.950Z,22.10
2018-12-13T12:07:24.953Z,21.30
2018-12-13T12:08:24.934Z,21.50
2018-12-13T12:09:24.919Z,21.80
2018-12-13T12:10:24.920Z,22.50
2018-12-13T12:11:24.895Z,21.90
2018-12-13T12:12:24.913Z,22.10
2018-12-13T12:13:24.879Z,22.40
2018-12-13T12:14:24.868Z,23.00
2018-12-13T12:15:24.855Z,22.10
2018-12-13T12:16:24.862Z,22.80
2018-12-13T12:17:24.848Z,23.00
2018-12-13T12:18:24.820Z,23.10
2018-12-13T12:19:24.813Z,23.00
2018-12-13T12:20:24.812Z,24.50
2018-12-13T12:21:24.785Z,24.20
2018-12-13T12:22:24.789Z,24.40
2018-12-13T12:23:24.766Z,24.10
2018-12-13T12:24:24.752Z,24.60
2018-12-13T12:25:24.741Z,24.40
2018-12-13T12:26:24.733Z,24.60
2018-12-13T12:27:24.761Z,25.40
2018-12-13T12:28:24.709Z,24.30
2018-12-13T12:29:24.696Z,24.50
2018-12-13T12:30:24.681Z,25.90
2018-12-13T12:31:24.669Z,26.90
2018-12-13T12:32:24.690Z,25.70
2018-12-13T12:33:24.657Z,26.30
2018-12-13T12:34:24.641Z,26.40
2018-12-13T12:35:24.629Z,26.20
2018-12-13T12:36:24.617Z,26.50
2018-12-13T12:37:24.631Z,25.90
2018-12-13T12:38:24.599Z,27.30
2018-12-13T12:39:24.587Z,26.70
2018-12-13T12:40:24.573Z,26.60
2018-12-13T12:41:24.562Z,26.30
2018-12-13T12:42:24.583Z,27.00
2018-12-13T12:43:24.558Z,26.80
2018-12-13T12:44:24.531Z,27.10
2018-12-13T12:45:24.516Z,27.40
2018-12-13T12:46:24.507Z,26.20
2018-12-13T12:47:24.517Z,26.10
2018-12-13T12:48:24.481Z,26.20
2018-12-13T12:49:25.319Z,26.40
2018-12-13T12:50:24.468Z,26.60
2018-12-13T12:51:24.467Z,25.70
2018-12-13T12:52:24.478Z,26.30
2018-12-13T12:53:24.437Z,26.40